Mallard, IA (50562)

12:23 PM CST on December 04, 2016 (GMT -0600)
Mallard | | Change Station

Elev 1224 ft 42.94 °N, 94.68 °W | Updated 8 minutes ago

Overcast
Overcast
34.9 °F
Feels Like 31 °F
N
4.0
Wind Variable Wind from SSW
Gusts 13.0 mph

Today
High -- | Low -- °F
--% Chance of Precip.
Yesterday
High -- | Low -- °F
Precip. -- in
Pressure 29.86 in
Visibility 9.0 miles
Clouds Overcast 1300 ft
Windchill 31 °F
Dew Point 33 °F
Humidity 93%
Rainfall 0.14 in
Snow Depth Not available.
7:33 AM 4:44 PM
Waxing Crescent, 24% visible
METAR KAXA 041815Z AUTO 23013KT 9SM OVC013 03/01 A2986 RMK AO2
Pressure 29.86 in
Visibility 9.0 miles
Clouds Overcast 1300 ft
Windchill 31 °F
Dew Point 33 °F
Humidity 93%
Rainfall 0.14 in
Snow Depth Not available.
7:33 AM 4:44 PM
Waxing Crescent, 24% visible
METAR KAXA 041815Z AUTO 23013KT 9SM OVC013 03/01 A2986 RMK AO2

10-Day Weather Forecast

Almanac

Astronomy

Dec. 04, 2016 Rise Set
Actual Time
Civil Twilight
Nautical Twilight
Astronomical Twilight
Moon
Length of Visible Light
Length of Day
Tomorrow will be .
, % of the Moon is Illuminated

Today's Extremes

State Highs State Lows

Community

WunderPhotos

Upload Photos

1,955,639 photos uploaded!

WunderBlog® & News

Nearby

Air Quality

  Air Quality AQ Index Pollutant
Not available.

Snow Depth

Station Depth Elevation

Earthquake Activity

City Distance Mag. Time & Date
Minimum magnitude displayed is 2.5.

Coastal Water Temperatures

Place Temperature

Stations

Nearby Weather Stations

Station Location Temp. Windchill Dew Point Humidity Wind Precip. Elev Updated Type
                   

Watches & Warnings

There are currently no watches in effect.